Time;durP1;ratioP1;P1;durP2;ratioP2;P2;SDS_P1;SDS_P2;PMS_P1;PMS_P2;Temp;Humidity;BMP_temperature;BMP_pressure;BME280_temperature;BME280_humidity;BME280_pressure;Samples;Min_cycle;Max_cycle;Signal;HPM_P1;HPM_P2
2021/05/31 00:00:14;;;;;;;;;23.00;22.00;;;;;17.91;51.53;99256.03;6196750;28;125835;-65
2021/05/31 00:03:16;;;;;;;;;20.40;19.40;;;;;17.90;51.69;99260.66;6190974;28;126447;-65
2021/05/31 00:06:19;;;;;;;;;26.00;22.75;;;;;17.90;51.77;99262.56;6195096;28;125169;-65
2021/05/31 00:09:23;;;;;;;;;22.60;20.80;;;;;17.92;51.67;99257.69;6205498;28;126201;-65
2021/05/31 00:12:26;;;;;;;;;22.00;21.00;;;;;17.91;51.62;99256.88;6205079;28;123778;-65
2021/05/31 00:15:29;;;;;;;;;24.50;22.00;;;;;17.91;51.73;99250.59;6197984;28;124968;-65
2021/05/31 00:18:32;;;;;;;;;23.00;21.00;;;;;17.89;51.89;99255.47;6203691;28;125672;-65
2021/05/31 00:21:37;;;;;;;;;23.00;21.40;;;;;17.88;51.77;99245.66;6208319;28;97396;-65
2021/05/31 00:24:40;;;;;;;;;23.00;21.00;;;;;17.78;52.14;99262.75;6194536;28;125619;-65
2021/05/31 00:27:43;;;;;;;;;23.75;20.00;;;;;17.63;52.23;99244.34;6190595;28;126116;-65
2021/05/31 00:30:47;;;;;;;;;22.50;21.00;;;;;17.74;52.21;99242.50;6191687;28;124762;-65
2021/05/31 00:33:49;;;;;;;;;25.00;22.40;;;;;17.67;52.36;99233.75;6201626;28;126216;-65
2021/05/31 00:36:52;;;;;;;;;25.40;24.00;;;;;17.74;52.16;99239.78;6207554;28;124904;-65
2021/05/31 00:39:56;;;;;;;;;27.60;23.00;;;;;17.77;52.15;99227.56;6208944;28;126166;-65
2021/05/31 00:42:59;;;;;;;;;25.00;23.60;;;;;17.70;52.13;99227.75;6209479;28;126477;-65
2021/05/31 00:46:02;;;;;;;;;26.00;25.00;;;;;17.69;52.25;99231.59;6208836;28;126308;-65
2021/05/31 00:49:06;;;;;;;;;24.80;23.80;;;;;17.70;52.09;99235.94;6205690;28;124827;-65
2021/05/31 00:52:09;;;;;;;;;23.25;21.50;;;;;17.73;52.22;99230.00;6209099;28;124958;-65
2021/05/31 00:55:14;;;;;;;;;25.67;24.67;;;;;17.71;52.18;99234.88;6207428;28;126077;-65
2021/05/31 00:58:17;;;;;;;;;26.00;23.00;;;;;17.75;51.88;99231.34;6199376;28;124593;-65
2021/05/31 01:01:22;;;;;;;;;26.75;24.75;;;;;17.68;51.98;99221.75;6190892;28;126150;-65
2021/05/31 01:04:25;;;;;;;;;25.60;23.00;;;;;17.65;52.25;99233.16;6194346;28;126141;-65
2021/05/31 01:07:35;;;;;;;;;24.40;22.00;;;;;17.62;52.08;99229.06;6197346;28;124684;-65
2021/05/31 01:10:47;;;;;;;;;26.60;24.60;;;;;17.58;52.28;99229.81;6186860;28;124825;-65
2021/05/31 01:14:07;;;;;;;;;26.40;25.60;;;;;17.61;52.10;99230.16;6204652;28;126303;-65
2021/05/31 01:17:15;;;;;;;;;27.00;24.60;;;;;17.58;52.24;99227.91;6203626;28;123537;-64
2021/05/31 01:20:40;;;;;;;;;25.80;24.80;;;;;17.61;52.00;99221.97;6205428;28;124995;-64
2021/05/31 01:23:47;;;;;;;;;25.40;23.00;;;;;17.55;52.17;99227.59;6202876;28;126194;-66
2021/05/31 01:27:08;;;;;;;;;27.40;25.00;;;;;17.22;52.02;99174.13;6216514;28;126363;-64
2021/05/31 01:30:15;;;;;;;;;26.00;25.00;;;;;17.61;52.05;99237.50;6186118;28;126854;-64
2021/05/31 01:33:22;;;;;;;;;26.50;24.00;;;;;17.66;51.87;99241.09;6199555;28;122935;-64
2021/05/31 01:36:31;;;;;;;;;24.80;23.80;;;;;17.70;51.73;99228.59;6207609;28;124053;-65
2021/05/31 01:39:37;;;;;;;;;28.40;27.40;;;;;17.66;51.99;99234.81;6210891;28;126722;-64
2021/05/31 01:42:40;;;;;;;;;24.00;24.00;;;;;17.60;52.12;99233.94;6201800;28;125953;-64
2021/05/31 01:45:45;;;;;;;;;25.60;24.00;;;;;17.62;52.08;99230.97;6211716;28;125126;-64
2021/05/31 01:48:51;;;;;;;;;28.40;27.00;;;;;17.41;52.15;99205.38;6211642;28;125418;-64
2021/05/31 01:51:54;;;;;;;;;28.00;26.60;;;;;17.56;52.31;99227.34;6212591;28;126769;-64
2021/05/31 01:54:57;;;;;;;;;28.00;24.40;;;;;17.60;52.17;99231.22;6213118;28;124380;-64
2021/05/31 01:58:01;;;;;;;;;27.75;27.75;;;;;17.68;51.80;99228.03;6213366;28;125709;-64
2021/05/31 02:01:06;;;;;;;;;29.00;27.00;;;;;17.67;52.08;99234.56;6213510;28;125764;-64
2021/05/31 02:04:09;;;;;;;;;25.80;24.00;;;;;17.63;52.07;99225.28;6208240;28;126464;-66
2021/05/31 02:07:12;;;;;;;;;26.00;26.00;;;;;17.61;52.06;99230.16;6208382;28;126284;-64
2021/05/31 02:10:16;;;;;;;;;27.00;26.00;;;;;17.61;51.99;99221.13;6195021;28;124396;-64
2021/05/31 02:13:23;;;;;;;;;28.40;26.00;;;;;17.53;52.26;99225.16;6201712;28;126098;-65
2021/05/31 02:16:34;;;;;;;;;29.20;27.80;;;;;17.52;52.33;99215.31;6205555;28;125967;-64
2021/05/31 02:19:39;;;;;;;;;30.25;29.00;;;;;17.54;52.41;99215.91;6211516;28;126414;-64
2021/05/31 02:22:46;;;;;;;;;29.40;27.00;;;;;17.48;52.59;99216.91;6212971;28;125395;-65
2021/05/31 02:25:52;;;;;;;;;27.00;25.00;;;;;17.46;52.69;99216.34;6202139;28;125987;-64
2021/05/31 02:28:54;;;;;;;;;28.60;26.60;;;;;17.48;52.48;99218.81;6209926;28;123902;-64
2021/05/31 02:31:59;;;;;;;;;28.40;26.40;;;;;17.49;52.48;99220.47;6211157;28;125289;-64
2021/05/31 02:35:01;;;;;;;;;28.60;26.00;;;;;17.51;52.21;99205.47;6209999;28;125621;-64
2021/05/31 02:38:05;;;;;;;;;31.00;26.40;;;;;17.55;52.20;99216.69;6210605;28;127078;-64
2021/05/31 02:41:09;;;;;;;;;28.00;26.40;;;;;17.55;52.20;99208.50;6212169;28;124898;-64
2021/05/31 02:44:12;;;;;;;;;30.25;28.00;;;;;17.60;52.07;99208.59;6212383;28;126131;-64
2021/05/31 02:47:16;;;;;;;;;31.50;29.00;;;;;17.50;52.27;99203.84;6210299;28;126372;-64
2021/05/31 02:50:19;;;;;;;;;32.60;29.40;;;;;17.53;52.13;99205.25;6212057;28;127488;-64
2021/05/31 02:53:22;;;;;;;;;29.50;27.50;;;;;17.59;52.06;99207.75;6211570;28;126105;-64
2021/05/31 02:56:24;;;;;;;;;34.00;29.00;;;;;17.59;52.12;99213.22;6211473;28;126397;-64
2021/05/31 02:59:27;;;;;;;;;29.75;29.00;;;;;17.59;51.93;99215.16;6202780;28;125315;-64
2021/05/31 03:02:31;;;;;;;;;29.20;28.00;;;;;17.56;52.02;99210.16;6204260;28;126544;-64
2021/05/31 03:05:33;;;;;;;;;34.00;30.00;;;;;17.54;51.87;99210.44;6205912;28;126493;-64
2021/05/31 03:08:36;;;;;;;;;30.80;27.80;;;;;17.52;51.96;99209.88;6202411;28;125234;-64
2021/05/31 03:11:39;;;;;;;;;31.00;29.25;;;;;17.49;52.12;99204.13;6202080;28;126730;-65
2021/05/31 03:14:41;;;;;;;;;33.00;27.25;;;;;17.56;52.01;99205.53;6202671;28;124399;-64
2021/05/31 03:17:46;;;;;;;;;31.00;29.00;;;;;17.59;51.90;99205.03;6207500;28;124506;-64
2021/05/31 03:20:50;;;;;;;;;29.20;27.00;;;;;17.59;52.01;99209.69;6200460;28;125958;-64
2021/05/31 03:23:52;;;;;;;;;29.00;26.00;;;;;17.67;51.77;99211.94;6208108;28;126554;-64
2021/05/31 03:26:55;;;;;;;;;28.60;26.40;;;;;17.62;51.92;99215.44;6202301;28;126196;-64
2021/05/31 03:29:58;;;;;;;;;26.50;26.00;;;;;17.62;51.79;99220.06;6197892;28;126525;-64
2021/05/31 03:33:05;;;;;;;;;27.00;26.00;;;;;17.65;51.51;99214.09;6206627;28;125950;-64
2021/05/31 03:36:08;;;;;;;;;30.00;26.80;;;;;17.69;51.72;99207.84;6201495;28;126527;-64
2021/05/31 03:39:11;;;;;;;;;28.60;25.60;;;;;17.70;51.68;99214.94;6204533;28;124143;-64
2021/05/31 03:42:14;;;;;;;;;30.40;28.00;;;;;17.72;51.74;99211.97;6206353;28;124842;-64
2021/05/31 03:45:17;;;;;;;;;33.50;29.00;;;;;17.68;51.91;99211.69;6199126;28;126256;-64
2021/05/31 03:48:21;;;;;;;;;33.40;29.60;;;;;17.60;52.18;99220.31;6204949;28;125335;-64
2021/05/31 03:51:24;;;;;;;;;31.50;29.50;;;;;17.70;51.89;99209.50;6206205;28;124054;-64
2021/05/31 03:54:27;;;;;;;;;32.00;30.00;;;;;17.68;52.06;99217.13;6210252;28;126238;-64
2021/05/31 03:57:30;;;;;;;;;32.20;29.00;;;;;17.73;51.83;99210.91;6218824;28;125243;-64
2021/05/31 04:00:33;;;;;;;;;28.80;26.40;;;;;17.79;51.76;99214.50;6196839;28;126464;-64
2021/05/31 04:03:37;;;;;;;;;31.00;28.25;;;;;17.82;51.62;99209.34;6203524;28;126359;-64
2021/05/31 04:06:55;;;;;;;;;32.50;30.50;;;;;17.74;51.94;99210.63;6207222;28;126845;-64
2021/05/31 04:13:21;;;;;;;;;34.00;30.00;;;;;17.83;51.63;99210.16;6210811;28;126063;-65
2021/05/31 04:16:25;;;;;;;;;34.00;30.00;;;;;17.88;51.62;99208.28;6189769;28;124739;-65
2021/05/31 04:19:29;;;;;;;;;32.60;30.00;;;;;17.74;51.39;99177.91;6205005;28;125050;-65
2021/05/31 04:22:32;;;;;;;;;32.00;30.00;;;;;17.97;51.25;99214.91;6206432;28;126135;-65
2021/05/31 04:25:34;;;;;;;;;30.00;28.20;;;;;17.94;51.39;99215.41;6206324;28;124988;-65
2021/05/31 04:28:37;;;;;;;;;30.00;28.20;;;;;17.93;51.36;99215.69;6207100;28;126543;-65
2021/05/31 04:31:40;;;;;;;;;30.75;28.00;;;;;17.78;51.48;99201.94;6202682;28;125241;-64
2021/05/31 04:34:45;;;;;;;;;31.00;29.75;;;;;17.83;51.61;99221.91;6206315;28;125949;-65
2021/05/31 04:37:47;;;;;;;;;35.40;30.00;;;;;17.96;51.47;99221.44;6203168;28;126159;-65
2021/05/31 04:40:51;;;;;;;;;31.75;28.25;;;;;18.02;51.21;99214.94;6199193;28;125116;-64
2021/05/31 04:43:54;;;;;;;;;32.50;29.75;;;;;18.04;51.21;99222.84;6200533;28;126158;-65
2021/05/31 04:46:57;;;;;;;;;32.00;30.00;;;;;18.03;51.17;99215.78;6210360;28;124647;-65
2021/05/31 04:50:01;;;;;;;;;31.20;28.00;;;;;18.11;50.95;99224.28;6203186;28;125818;-65
2021/05/31 04:53:03;;;;;;;;;31.20;29.00;;;;;18.13;50.97;99218.56;6208051;28;126206;-65
2021/05/31 04:56:07;;;;;;;;;31.20;29.00;;;;;18.19;50.71;99203.84;6199654;28;124669;-65
2021/05/31 04:59:10;;;;;;;;;33.80;30.60;;;;;18.23;50.77;99210.41;6197800;28;126720;-65
2021/05/31 05:02:12;;;;;;;;;32.60;30.00;;;;;18.34;50.39;99203.94;6199749;28;126232;-65
2021/05/31 05:05:17;;;;;;;;;32.60;29.00;;;;;18.23;50.48;99177.69;6187541;28;126381;-65
2021/05/31 05:08:20;;;;;;;;;30.60;28.60;;;;;18.43;50.60;99210.53;6198180;28;126676;-65
2021/05/31 05:11:23;;;;;;;;;34.00;30.00;;;;;18.60;49.88;99205.75;6198427;28;125016;-65
2021/05/31 05:14:26;;;;;;;;;31.75;28.00;;;;;18.72;49.33;99213.72;6188306;28;126818;-64
2021/05/31 05:17:29;;;;;;;;;29.20;26.00;;;;;18.72;49.46;99208.25;6192689;28;126874;-65
2021/05/31 05:20:34;;;;;;;;;30.20;28.60;;;;;18.76;49.27;99212.13;6209520;28;127742;-65
2021/05/31 05:23:37;;;;;;;;;31.50;29.00;;;;;18.81;49.41;99212.16;6206607;28;124912;-64
2021/05/31 05:26:39;;;;;;;;;29.60;27.00;;;;;18.92;49.21;99204.78;6206448;28;125964;-64
2021/05/31 05:29:42;;;;;;;;;34.00;29.00;;;;;19.01;49.00;99204.00;6188304;28;125256;-65
2021/05/31 05:32:48;;;;;;;;;27.40;26.40;;;;;19.13;48.20;99208.41;6216117;28;126632;-65
2021/05/31 05:35:54;;;;;;;;;29.60;27.20;;;;;19.20;48.16;99212.53;6212410;28;126378;-65
2021/05/31 05:39:20;;;;;;;;;27.50;26.50;;;;;19.24;48.08;99213.63;6198368;28;124534;-65
2021/05/31 05:42:38;;;;;;;;;25.00;24.00;;;;;18.95;47.62;99177.78;6208294;28;124561;-64
2021/05/31 05:45:50;;;;;;;;;28.60;26.40;;;;;19.15;47.73;99212.53;6207821;28;125758;-64
2021/05/31 05:48:53;;;;;;;;;24.00;21.00;;;;;19.22;47.21;99212.25;6194820;28;125905;-64
2021/05/31 05:51:58;;;;;;;;;25.00;23.50;;;;;19.25;46.90;99209.81;6201048;28;124921;-64
2021/05/31 05:55:00;;;;;;;;;23.60;22.40;;;;;19.32;46.82;99204.06;6210899;28;125012;-64
2021/05/31 05:58:03;;;;;;;;;24.40;23.00;;;;;19.41;46.50;99205.16;6195213;28;126780;-64
2021/05/31 06:01:08;;;;;;;;;24.60;21.00;;;;;19.46;46.26;99199.75;6211924;28;127739;-65
2021/05/31 06:04:11;;;;;;;;;23.60;21.60;;;;;19.49;46.21;99210.16;6221788;28;124896;-66
2021/05/31 06:07:15;;;;;;;;;21.00;19.00;;;;;19.71;46.01;99207.16;6196675;28;123791;-67
2021/05/31 06:10:24;;;;;;;;;21.40;19.60;;;;;19.95;45.22;99201.94;6192427;28;126267;-65
2021/05/31 06:13:27;;;;;;;;;19.00;18.00;;;;;20.05;44.66;99201.94;6201163;28;126783;-66
2021/05/31 06:16:30;;;;;;;;;15.00;15.00;;;;;20.14;43.75;99197.53;6198633;28;126500;-65
2021/05/31 06:19:32;;;;;;;;;18.00;16.50;;;;;20.43;43.70;99201.34;6193577;28;124959;-65
2021/05/31 06:22:40;;;;;;;;;18.00;17.00;;;;;20.65;43.62;99199.09;6206258;28;126468;-65
2021/05/31 06:25:43;;;;;;;;;17.50;16.50;;;;;20.90;42.54;99200.06;6200986;28;125914;-66
2021/05/31 06:28:46;;;;;;;;;18.60;17.00;;;;;21.02;41.68;99201.38;6211108;28;125098;-65
2021/05/31 06:31:49;;;;;;;;;16.00;15.00;;;;;21.11;41.40;99199.66;6198679;28;124735;-65
2021/05/31 06:34:52;;;;;;;;;15.00;15.00;;;;;21.19;40.17;99192.81;6196107;28;125102;-66
2021/05/31 06:37:56;;;;;;;;;14.00;13.00;;;;;21.53;40.80;99201.91;6200700;28;125055;-65
2021/05/31 06:40:59;;;;;;;;;17.00;15.75;;;;;21.63;39.55;99181.81;6188173;28;124931;-68
2021/05/31 06:44:02;;;;;;;;;15.25;14.25;;;;;21.93;38.79;99203.56;6188365;28;125006;-65
2021/05/31 06:47:06;;;;;;;;;14.40;14.00;;;;;22.15;39.72;99202.22;6187756;28;126273;-66
2021/05/31 06:50:10;;;;;;;;;17.00;15.00;;;;;22.25;39.41;99182.91;6197527;28;126030;-67
2021/05/31 06:53:14;;;;;;;;;16.50;13.00;;;;;22.59;38.78;99189.13;6205356;28;126177;-65
2021/05/31 06:56:19;;;;;;;;;15.00;14.00;;;;;22.66;37.47;99192.34;6195029;28;124885;-65
2021/05/31 06:59:21;;;;;;;;;13.50;13.50;;;;;22.60;37.20;99190.75;6199793;28;125804;-66
2021/05/31 07:02:24;;;;;;;;;14.60;13.60;;;;;22.78;37.96;99187.25;6205412;28;125866;-65
2021/05/31 07:05:27;;;;;;;;;19.00;17.00;;;;;22.90;37.50;99192.34;6182100;28;125197;-66
2021/05/31 07:08:32;;;;;;;;;15.00;14.00;;;;;22.86;37.36;99172.88;6202100;28;126632;-66
2021/05/31 07:11:35;;;;;;;;;15.00;13.40;;;;;23.13;37.23;99185.97;6200494;28;128020;-67
2021/05/31 07:14:41;;;;;;;;;18.50;16.00;;;;;23.26;36.29;99189.94;6202956;28;124974;-66
2021/05/31 07:17:48;;;;;;;;;15.00;14.00;;;;;23.48;36.77;99184.66;6210870;28;125597;-69
2021/05/31 07:20:52;;;;;;;;;16.00;14.00;;;;;23.31;36.52;99157.63;6187453;28;126254;-67
2021/05/31 07:23:56;;;;;;;;;13.80;12.80;;;;;23.55;35.75;99178.78;6192788;28;126065;-67
2021/05/31 07:26:59;;;;;;;;;12.60;11.00;;;;;23.88;34.98;99179.63;6185672;28;125824;-67
2021/05/31 07:30:03;;;;;;;;;13.00;13.00;;;;;24.17;34.93;99177.47;6189441;28;126615;-67
2021/05/31 07:33:09;;;;;;;;;18.00;16.00;;;;;24.31;34.91;99178.31;6207842;28;125189;-67
2021/05/31 07:36:12;;;;;;;;;16.50;15.00;;;;;24.30;35.05;99182.19;6204475;28;124964;-67
2021/05/31 07:39:16;;;;;;;;;16.00;15.00;;;;;24.11;34.99;99173.13;6188614;28;124859;-66
2021/05/31 07:42:19;;;;;;;;;18.60;17.00;;;;;24.07;35.99;99170.19;6203667;27;126051;-67
2021/05/31 07:45:22;;;;;;;;;16.60;16.00;;;;;23.98;35.11;99173.94;6204019;28;126802;-70
2021/05/31 07:48:24;;;;;;;;;18.67;16.67;;;;;23.95;35.56;99163.50;6209002;28;124724;-69
2021/05/31 07:51:28;;;;;;;;;16.00;14.00;;;;;24.07;34.43;99161.09;6196348;28;126178;-67
2021/05/31 07:54:32;;;;;;;;;13.00;13.00;;;;;24.09;34.93;99165.16;6209536;28;125387;-68
2021/05/31 07:57:35;;;;;;;;;12.00;10.60;;;;;24.20;34.52;99162.25;6209625;28;124646;-68
2021/05/31 08:00:38;;;;;;;;;11.80;11.40;;;;;24.23;33.36;99164.41;6203414;28;124944;-68
2021/05/31 08:03:42;;;;;;;;;13.00;12.00;;;;;24.42;33.34;99159.63;6204205;28;125424;-67
2021/05/31 08:06:45;;;;;;;;;9.00;8.00;;;;;24.32;30.44;99162.59;6192564;28;126131;-67
2021/05/31 08:09:49;;;;;;;;;6.00;5.00;;;;;24.70;31.57;99135.63;6196822;28;124527;-67
2021/05/31 08:12:52;;;;;;;;;3.00;3.00;;;;;25.20;28.41;99147.50;6195172;28;125187;-65
2021/05/31 08:15:55;;;;;;;;;3.60;3.60;;;;;25.75;29.92;99154.47;6198049;28;126133;-66
2021/05/31 08:19:01;;;;;;;;;4.00;4.00;;;;;26.22;28.00;99164.03;6199274;28;126181;-69
2021/05/31 08:22:05;;;;;;;;;5.00;4.00;;;;;26.42;25.42;99148.03;6195154;28;126200;-67
2021/05/31 08:25:10;;;;;;;;;4.00;4.00;;;;;26.28;25.45;99146.19;6205937;28;126136;-67
2021/05/31 08:28:13;;;;;;;;;4.00;4.00;;;;;26.12;24.76;99144.94;6195783;28;125862;-68
2021/05/31 08:31:16;;;;;;;;;4.00;4.00;;;;;26.01;24.91;99142.75;6187024;28;124388;-66
2021/05/31 08:34:20;;;;;;;;;4.00;4.00;;;;;25.74;25.24;99139.03;6201723;28;126907;-67
2021/05/31 08:37:23;;;;;;;;;4.00;4.00;;;;;25.74;26.67;99144.56;6205082;28;126657;-67
2021/05/31 08:40:27;;;;;;;;;4.00;3.00;;;;;25.98;27.22;99146.16;6179648;28;126899;-66
2021/05/31 08:43:29;;;;;;;;;3.00;3.00;;;;;26.08;25.23;99151.41;6224645;27;123746;-67
2021/05/31 08:46:34;;;;;;;;;3.20;3.00;;;;;26.22;23.69;99149.41;6203451;28;125973;-65
2021/05/31 08:49:39;;;;;;;;;5.00;5.00;;;;;26.27;24.31;99147.31;6198304;28;125828;-66
2021/05/31 08:52:42;;;;;;;;;6.00;5.00;;;;;26.19;24.31;99144.50;6215644;28;126060;-65
2021/05/31 08:55:47;;;;;;;;;4.60;4.60;;;;;25.93;24.82;99149.88;6209506;28;126497;-67
2021/05/31 08:58:49;;;;;;;;;4.00;4.00;;;;;25.76;25.35;99153.31;6201007;28;124885;-67
2021/05/31 09:01:52;;;;;;;;;5.00;4.60;;;;;25.56;26.04;99147.53;6192349;28;125685;-67
2021/05/31 09:04:55;;;;;;;;;5.00;4.00;;;;;25.37;26.20;99150.41;6197807;28;123889;-67
2021/05/31 09:08:02;;;;;;;;;5.00;5.00;;;;;25.28;26.61;99152.28;6199949;28;124987;-66
2021/05/31 09:11:07;;;;;;;;;4.00;4.00;;;;;25.15;26.95;99142.94;6188626;28;126765;-65
2021/05/31 09:14:21;;;;;;;;;3.00;3.00;;;;;25.02;26.78;99146.56;6204238;28;127829;-65
2021/05/31 09:17:26;;;;;;;;;5.40;5.40;;;;;24.86;26.12;99148.78;6203775;28;124882;-65
2021/05/31 09:20:30;;;;;;;;;5.00;4.00;;;;;24.82;26.19;99138.69;6186723;28;127136;-65
2021/05/31 09:23:35;;;;;;;;;4.00;4.00;;;;;24.88;27.31;99137.47;6202210;28;126195;-65
2021/05/31 09:26:47;;;;;;;;;5.00;5.00;;;;;24.92;26.89;99133.78;6175189;28;124964;-65
2021/05/31 09:29:58;;;;;;;;;5.00;5.00;;;;;25.04;27.12;99133.25;6192211;28;126021;-65
2021/05/31 09:33:00;;;;;;;;;4.00;4.00;;;;;25.01;26.88;99131.94;6187623;28;126076;-64
2021/05/31 09:36:07;;;;;;;;;6.00;5.00;;;;;24.99;26.62;99127.84;6190852;28;126219;-65
2021/05/31 09:39:10;;;;;;;;;5.00;5.00;;;;;25.02;25.90;99132.75;6185538;28;125822;-68
2021/05/31 09:42:17;;;;;;;;;5.00;5.00;;;;;25.09;26.34;99129.56;6199354;28;125853;-68
2021/05/31 09:45:20;;;;;;;;;5.00;4.00;;;;;25.11;26.31;99127.31;6199141;28;123997;-66
2021/05/31 09:48:32;;;;;;;;;6.00;5.00;;;;;25.35;26.68;99125.91;6192730;28;126228;-67
2021/05/31 09:51:35;;;;;;;;;5.00;5.00;;;;;25.49;27.22;99130.53;6196554;28;124005;-65
2021/05/31 09:54:39;;;;;;;;;5.40;5.40;;;;;25.72;27.18;99127.47;6200706;28;126957;-70
2021/05/31 09:57:43;;;;;;;;;6.00;6.00;;;;;25.88;26.22;99123.19;6207218;28;125792;-65
2021/05/31 10:00:58;;;;;;;;;5.40;5.40;;;;;26.09;26.31;99134.53;6181862;28;125320;-65
2021/05/31 10:04:22;;;;;;;;;5.00;5.00;;;;;26.13;25.74;99135.53;6196701;28;126164;-66
2021/05/31 10:07:37;;;;;;;;;4.00;4.00;;;;;26.13;25.75;99141.06;6194079;28;125015;-66
2021/05/31 10:10:41;;;;;;;;;5.80;4.00;;;;;25.95;25.79;99097.06;6195521;28;126043;-65
2021/05/31 10:13:46;;;;;;;;;3.00;3.00;;;;;26.34;25.82;99133.03;6204118;28;125137;-68
2021/05/31 10:16:50;;;;;;;;;4.00;4.00;;;;;26.50;25.41;99120.41;6190680;28;124709;-64
2021/05/31 10:19:53;;;;;;;;;5.25;5.25;;;;;26.74;25.08;99098.66;6196366;28;124975;-67
2021/05/31 10:22:56;;;;;;;;;5.00;4.80;;;;;27.30;24.24;99118.28;6191198;27;126119;-66
2021/05/31 10:26:02;;;;;;;;;4.75;4.00;;;;;27.53;23.43;99100.38;6198509;28;125891;-66
2021/05/31 10:29:09;;;;;;;;;5.00;5.00;;;;;28.01;22.93;99111.97;6196208;28;125944;-65
2021/05/31 10:32:13;;;;;;;;;6.00;5.00;;;;;27.95;22.59;99090.34;6197782;28;125969;-68
2021/05/31 10:35:18;;;;;;;;;4.00;4.00;;;;;28.03;23.13;99106.13;6199843;28;124891;-67
2021/05/31 10:38:23;;;;;;;;;3.00;3.00;;;;;27.96;21.55;99098.31;6205584;28;124550;-65
2021/05/31 10:41:27;;;;;;;;;4.00;3.00;;;;;28.20;21.88;99106.06;6197543;28;125876;-67
2021/05/31 10:44:32;;;;;;;;;5.00;4.00;;;;;28.39;22.37;99100.13;6221849;28;126252;-67
2021/05/31 10:47:34;;;;;;;;;5.80;5.80;;;;;28.54;22.46;99095.97;6212230;28;126022;-65
2021/05/31 10:50:39;;;;;;;;;4.00;4.00;;;;;28.56;22.68;99102.00;6200376;28;125334;-67
2021/05/31 10:53:42;;;;;;;;;4.00;4.00;;;;;28.71;22.51;99099.47;6212232;28;125978;-64
2021/05/31 10:56:47;;;;;;;;;3.00;3.00;;;;;28.73;21.87;99093.59;6204951;28;125151;-67
2021/05/31 10:59:53;;;;;;;;;4.00;3.50;;;;;29.04;21.76;99096.78;6199156;28;126117;-66
2021/05/31 11:03:08;;;;;;;;;2.00;2.00;;;;;29.10;21.58;99101.00;6196207;28;127064;-65
2021/05/31 11:06:12;;;;;;;;;3.00;3.00;;;;;28.92;20.31;99093.97;6198653;28;124796;-66
2021/05/31 11:09:17;;;;;;;;;4.20;4.20;;;;;28.92;22.08;99082.03;6203538;28;125834;-65
2021/05/31 11:12:29;;;;;;;;;5.00;4.00;;;;;28.59;22.00;99088.25;6202144;28;125703;-65
2021/05/31 11:15:35;;;;;;;;;3.00;3.00;;;;;28.53;22.35;99080.47;6207889;28;123785;-65
2021/05/31 11:18:43;;;;;;;;;3.00;3.00;;;;;28.36;22.76;99084.16;6206770;28;124692;-66
2021/05/31 11:21:45;;;;;;;;;4.00;4.00;;;;;28.50;22.64;99081.94;6199756;28;123765;-66
2021/05/31 11:24:52;;;;;;;;;3.00;3.00;;;;;28.66;21.69;99080.22;6198339;28;125409;-66
2021/05/31 11:27:58;;;;;;;;;2.40;2.40;;;;;28.53;21.22;99077.72;6208489;28;126590;-67
2021/05/31 11:31:02;;;;;;;;;3.00;3.00;;;;;28.55;21.09;99078.97;6197818;28;124022;-69
2021/05/31 11:34:06;;;;;;;;;3.00;3.00;;;;;28.66;21.39;99073.84;6208922;28;125033;-66
2021/05/31 11:37:09;;;;;;;;;3.00;3.00;;;;;28.65;20.93;99072.22;6206457;28;126271;-64
2021/05/31 11:40:21;;;;;;;;;2.50;2.00;;;;;28.85;21.34;99063.97;6202560;28;124629;-67
2021/05/31 11:43:24;;;;;;;;;2.00;2.00;;;;;29.01;20.90;99064.16;6197968;28;124680;-68
2021/05/31 11:46:28;;;;;;;;;2.60;2.00;;;;;29.02;20.04;99051.09;6203570;28;126660;-67
2021/05/31 11:49:37;;;;;;;;;2.00;2.00;;;;;28.80;20.37;99066.94;6198098;28;126185;-66
2021/05/31 11:52:43;;;;;;;;;3.00;2.00;;;;;28.62;19.58;99045.16;6203557;28;124964;-67
2021/05/31 11:55:46;;;;;;;;;2.00;2.00;;;;;28.16;19.55;99054.41;6212212;28;124822;-67
2021/05/31 11:58:50;;;;;;;;;3.00;2.00;;;;;27.84;19.91;99051.09;6207459;28;126084;-67
2021/05/31 12:01:55;;;;;;;;;4.40;3.40;;;;;27.19;21.31;99058.84;6216336;28;124692;-67
2021/05/31 12:04:57;;;;;;;;;3.60;3.00;;;;;27.01;22.41;99050.56;6212118;28;125989;-68
2021/05/31 12:08:06;;;;;;;;;3.40;3.00;;;;;27.11;21.43;99055.75;6211889;28;126232;-65
2021/05/31 12:11:18;;;;;;;;;3.00;3.00;;;;;27.02;22.10;99049.44;6196446;28;126033;-66
2021/05/31 12:14:25;;;;;;;;;2.75;2.25;;;;;27.12;22.27;99059.34;6202468;28;126344;-66
2021/05/31 12:17:30;;;;;;;;;3.00;3.00;;;;;26.91;20.55;99050.06;6198443;28;125222;-66
2021/05/31 12:20:33;;;;;;;;;3.00;3.00;;;;;27.06;20.01;99047.63;6197729;28;123751;-65
2021/05/31 12:23:36;;;;;;;;;3.00;3.00;;;;;27.26;20.17;99050.88;6208780;28;126193;-65
2021/05/31 12:26:39;;;;;;;;;3.00;2.80;;;;;27.50;20.87;99037.34;6196941;28;126925;-66
2021/05/31 12:29:46;;;;;;;;;3.00;3.00;;;;;27.87;20.36;99044.88;6198741;28;123923;-66
2021/05/31 12:32:50;;;;;;;;;3.00;3.00;;;;;28.22;19.83;99045.56;6200264;28;126600;-65
2021/05/31 12:35:53;;;;;;;;;3.00;3.00;;;;;28.28;18.98;99021.25;6207471;28;124894;-66
2021/05/31 12:38:56;;;;;;;;;3.40;3.40;;;;;28.18;20.29;99027.16;6192349;28;126435;-65
2021/05/31 12:42:01;;;;;;;;;3.00;3.00;;;;;28.36;20.05;99021.19;6189874;28;125587;-64
2021/05/31 12:45:06;;;;;;;;;3.50;3.00;;;;;28.44;20.22;99014.75;6204106;28;123873;-68
2021/05/31 12:48:15;;;;;;;;;3.00;3.00;;;;;28.64;20.35;99020.66;6200564;28;124038;-66
2021/05/31 12:51:18;;;;;;;;;2.00;2.00;;;;;28.61;17.99;99013.03;6195539;28;125817;-65
2021/05/31 12:54:21;;;;;;;;;3.00;2.00;;;;;28.55;19.64;99004.09;6203020;28;125421;-68
2021/05/31 12:57:24;;;;;;;;;3.80;2.20;;;;;28.52;18.03;98998.41;6195637;28;126073;-67
2021/05/31 13:00:30;;;;;;;;;2.00;2.00;;;;;28.77;19.85;99011.31;6198481;28;126199;-66
2021/05/31 13:03:35;;;;;;;;;4.00;3.00;;;;;28.84;19.39;98994.91;6202598;28;124505;-67
2021/05/31 13:06:39;;;;;;;;;5.00;4.00;;;;;29.12;19.29;99007.09;6199856;28;123917;-67
2021/05/31 13:09:43;;;;;;;;;2.00;2.00;;;;;29.36;19.72;99002.81;6195744;28;125651;-66
2021/05/31 13:12:51;;;;;;;;;2.00;2.00;;;;;29.57;18.82;99009.09;6202927;28;126252;-67
2021/05/31 13:15:56;;;;;;;;;3.60;2.60;;;;;29.57;17.96;99011.88;6204185;28;127106;-66
2021/05/31 13:19:00;;;;;;;;;2.40;2.00;;;;;29.27;17.66;99005.66;6201375;28;124549;-68
2021/05/31 13:22:05;;;;;;;;;2.00;1.00;;;;;28.88;18.56;99014.50;6195051;28;124346;-66
2021/05/31 13:25:16;;;;;;;;;1.80;1.80;;;;;28.60;18.78;98998.34;6184210;28;125933;-68
2021/05/31 13:28:22;;;;;;;;;4.00;3.00;;;;;28.37;20.08;98997.84;6208556;28;124025;-64
2021/05/31 13:31:26;;;;;;;;;3.00;3.00;;;;;28.28;20.29;99008.19;6194029;28;125730;-65
2021/05/31 13:34:34;;;;;;;;;2.00;2.00;;;;;28.32;21.00;99013.88;6199580;28;124784;-64
2021/05/31 13:37:45;;;;;;;;;2.00;2.00;;;;;28.56;21.87;99005.72;6208477;28;124807;-68
2021/05/31 13:40:50;;;;;;;;;3.00;3.00;;;;;28.48;20.56;99011.34;6191444;28;125876;-67
2021/05/31 13:43:53;;;;;;;;;2.00;2.00;;;;;28.47;20.86;99015.25;6203515;28;126740;-68
2021/05/31 13:46:56;;;;;;;;;3.00;3.00;;;;;28.41;21.06;99009.09;6199111;28;124893;-68
2021/05/31 13:50:00;;;;;;;;;4.00;3.00;;;;;28.51;20.54;99007.88;6200592;28;126395;-68
2021/05/31 13:53:03;;;;;;;;;3.00;3.00;;;;;28.55;20.50;99008.81;6212314;28;126129;-67
2021/05/31 13:56:06;;;;;;;;;3.50;3.00;;;;;28.68;20.93;98999.44;6211884;28;127407;-67
2021/05/31 13:59:08;;;;;;;;;2.80;2.00;;;;;28.61;20.01;99011.06;6205814;28;128800;-67
2021/05/31 14:02:11;;;;;;;;;4.00;4.00;;;;;28.14;21.06;99007.63;6202235;28;124880;-67
2021/05/31 14:05:17;;;;;;;;;4.00;4.00;;;;;27.70;21.74;99002.56;6219735;28;126228;-67
2021/05/31 14:08:19;;;;;;;;;4.00;4.00;;;;;27.29;22.68;99000.38;6199941;28;126122;-67
2021/05/31 14:11:22;;;;;;;;;4.00;3.00;;;;;26.74;21.91;99009.34;6182383;28;125581;-67